This is the latest recevied weather packets stored in our database for station/object LRTM. If no packets are shown the sender has not sent any weather packets the latest 10 day(s).
| Time | Temp. | Humidity | Pressure | Rain* | Wind** | Luminosity | Snow |
|---|---|---|---|---|---|---|---|
| 1777501106 | 7.78° C | 66% | 1022 hPa | - | - | - | - |
| 1777500207 | 7.78° C | 66% | 1022 hPa | - | - | - | - |
| 1777499306 | 7.78° C | 66% | 1022 hPa | - | - | - | - |
| 1777498406 | 7.78° C | 66% | 1022 hPa | - | - | - | - |
| 1777497507 | 7.78° C | 66% | 1021 hPa | - | - | - | - |
| 1777496606 | 7.78° C | 66% | 1021 hPa | - | - | - | - |
| 1777495707 | 8.89° C | 62% | 1021 hPa | - | - | - | - |
| 1777494807 | 8.89° C | 62% | 1021 hPa | - | - | - | - |
| 1777493906 | 10° C | 58% | 1020 hPa | - | - | - | - |
| 1777493006 | 10° C | 58% | 1020 hPa | - | - | - | - |
| 1777492107 | 12.22° C | 28% | 1020 hPa | - | - | - | - |
| 1777491206 | 12.22° C | 28% | 1020 hPa | - | - | - | - |
| 1777490306 | 12.22° C | 26% | 1019 hPa | - | - | - | - |
| 1777489407 | 12.22° C | 26% | 1019 hPa | - | - | - | - |
| 1777488508 | 12.78° C | 24% | 1019 hPa | - | - | - | - |
| 1777487606 | 12.78° C | 24% | 1019 hPa | - | - | - | - |
| 1777486707 | 12.78° C | 24% | 1018 hPa | - | - | - | - |
| 1777485806 | 12.78° C | 24% | 1018 hPa | - | - | - | - |
| 1777484907 | 12.78° C | 24% | 1018 hPa | - | - | - | - |
| 1777484006 | 12.78° C | 24% | 1018 hPa | - | - | - | - |
| 1777483106 | 13.89° C | 25% | 1017 hPa | - | - | - | - |
| 1777482206 | 13.89° C | 25% | 1017 hPa | - | - | - | - |
| 1777481306 | 15° C | 27% | 1017 hPa | - | - | - | - |
| 1777480406 | 15° C | 27% | 1017 hPa | - | - | - | - |
| 1777479509 | 15° C | 31% | 1017 hPa | - | - | - | - |
* Rain since midnight (hover to see other rain measurements)
** Current wind speed in m/s (hover to see current wind gust speed)